Time;durP1;ratioP1;P1;durP2;ratioP2;P2;SDS_P1;SDS_P2;PMS_P1;PMS_P2;Temp;Humidity;BMP_temperature;BMP_pressure;BME280_temperature;BME280_humidity;BME280_pressure;Samples;Min_cycle;Max_cycle;Signal;HPM_P1;HPM_P2
2022/11/20 00:01:27;;;;;;;9.50;2.22;;;-5.30;99.90;;;;;;5112101;27;20047;-68
2022/11/20 00:03:54;;;;;;;2.63;1.10;;;-5.20;99.90;;;;;;5109388;28;20035;-69
2022/11/20 00:06:21;;;;;;;2.50;1.15;;;-5.20;99.90;;;;;;5104035;28;20543;-69
2022/11/20 00:08:47;;;;;;;2.88;1.48;;;-5.10;99.90;;;;;;5105302;28;20069;-68
2022/11/20 00:11:20;;;;;;;5.05;1.42;;;-5.00;99.90;;;;;;5102741;28;20039;-69
2022/11/20 00:13:50;;;;;;;4.40;1.70;;;-5.00;99.90;;;;;;5113897;28;20035;-68
2022/11/20 00:16:18;;;;;;;5.85;1.98;;;-5.00;99.90;;;;;;5103280;28;20380;-68
2022/11/20 00:18:45;;;;;;;4.05;1.60;;;-4.90;99.90;;;;;;5095169;28;20049;-68
2022/11/20 00:21:16;;;;;;;4.15;1.92;;;-4.90;99.90;;;;;;5084743;28;20745;-69
2022/11/20 00:23:42;;;;;;;3.22;1.58;;;-4.90;99.90;;;;;;5098912;28;20815;-69
2022/11/20 00:26:11;;;;;;;2.63;1.33;;;-4.90;99.90;;;;;;5090569;28;20061;-68
2022/11/20 00:28:37;;;;;;;4.68;2.10;;;-5.00;99.90;;;;;;5086197;28;20032;-69
2022/11/20 00:31:05;;;;;;;4.07;1.58;;;-5.00;99.90;;;;;;5089237;28;20062;-68
2022/11/20 00:33:31;;;;;;;3.92;1.85;;;-5.10;99.90;;;;;;5096360;28;20068;-69
2022/11/20 00:36:05;;;;;;;3.10;1.60;;;-5.10;99.90;;;;;;5091213;28;20039;-68
2022/11/20 00:38:32;;;;;;;3.92;1.58;;;-5.10;99.90;;;;;;5096680;28;20173;-69
2022/11/20 00:40:59;;;;;;;3.38;1.40;;;-5.30;99.90;;;;;;5085013;28;20035;-69
2022/11/20 00:43:26;;;;;;;3.30;1.42;;;-5.30;99.90;;;;;;5096685;28;20119;-69
2022/11/20 00:45:57;;;;;;;2.30;1.23;;;-5.30;99.90;;;;;;5089089;28;20040;-69
2022/11/20 00:48:23;;;;;;;5.38;1.35;;;-5.30;99.90;;;;;;5103466;28;20740;-68
2022/11/20 00:50:48;;;;;;;2.28;1.13;;;-5.20;99.90;;;;;;5093623;28;20678;-68
2022/11/20 00:53:14;;;;;;;2.35;1.15;;;-5.20;99.90;;;;;;5097162;28;20036;-69
2022/11/20 00:55:40;;;;;;;5.00;1.25;;;-5.30;99.90;;;;;;5093953;28;20122;-68
2022/11/20 00:58:06;;;;;;;2.50;1.40;;;-5.30;99.90;;;;;;5086025;28;20109;-68
2022/11/20 01:00:32;;;;;;;2.67;1.30;;;-5.30;99.90;;;;;;5085903;28;20039;-69
2022/11/20 01:02:58;;;;;;;2.50;1.17;;;-5.30;99.90;;;;;;5097863;28;20035;-69
2022/11/20 01:05:23;;;;;;;1.85;1.20;;;-5.30;99.90;;;;;;5091044;28;20151;-69
2022/11/20 01:07:49;;;;;;;2.97;1.50;;;-5.30;99.90;;;;;;5103858;28;20506;-68
2022/11/20 01:10:15;;;;;;;5.10;1.08;;;-5.30;99.90;;;;;;5084537;28;20088;-69
2022/11/20 01:12:40;;;;;;;1.20;0.80;;;-5.30;99.90;;;;;;5089822;28;20128;-68
2022/11/20 01:15:07;;;;;;;0.60;0.50;;;-5.30;99.90;;;;;;5089389;28;20400;-68
2022/11/20 01:17:33;;;;;;;2.65;0.60;;;-5.20;99.90;;;;;;5098922;28;20071;-68
2022/11/20 01:20:00;;;;;;;1.02;0.80;;;-5.20;99.90;;;;;;5086429;28;20396;-68
2022/11/20 01:22:26;;;;;;;5.72;1.15;;;-5.10;99.90;;;;;;5100045;28;20857;-68
2022/11/20 01:24:51;;;;;;;0.90;0.50;;;-5.10;99.90;;;;;;5087893;28;20638;-68
2022/11/20 01:27:17;;;;;;;1.48;0.60;;;-5.10;99.90;;;;;;5099689;28;20045;-68
2022/11/20 01:29:43;;;;;;;1.25;0.63;;;-5.10;99.90;;;;;;5080186;28;20028;-68
2022/11/20 01:32:08;;;;;;;0.95;0.60;;;-5.00;99.90;;;;;;5096335;28;20108;-68
2022/11/20 01:34:34;;;;;;;1.85;0.50;;;-5.00;99.90;;;;;;5089994;28;20059;-68
2022/11/20 01:37:00;;;;;;;0.75;0.50;;;-5.10;99.90;;;;;;5095204;28;20100;-68
2022/11/20 01:39:26;;;;;;;0.50;0.30;;;-5.10;99.90;;;;;;5092014;28;20135;-67
2022/11/20 01:44:58;;;;;;;0.50;0.40;;;-5.00;99.90;;;;;;5089984;28;20066;-68
2022/11/20 01:47:44;;;;;;;0.77;0.52;;;-5.00;99.90;;;;;;5082915;28;20539;-68
2022/11/20 01:50:13;;;;;;;1.02;0.65;;;-5.00;99.90;;;;;;5088979;28;20036;-68
2022/11/20 01:52:59;;;;;;;0.65;0.40;;;-5.00;99.90;;;;;;5091602;28;20047;-68
2022/11/20 01:55:32;;;;;;;1.63;0.60;;;-5.00;99.90;;;;;;5087857;28;20036;-68
2022/11/20 01:57:59;;;;;;;1.02;0.65;;;-4.90;99.90;;;;;;5084068;28;20132;-68
2022/11/20 02:00:25;;;;;;;2.08;1.38;;;-5.00;99.90;;;;;;5076584;28;20044;-68
2022/11/20 02:02:56;;;;;;;1.27;0.82;;;-5.10;99.90;;;;;;5092528;28;20043;-68
2022/11/20 02:05:28;;;;;;;2.67;1.08;;;-5.10;99.90;;;;;;5087666;28;20400;-68
2022/11/20 02:07:57;;;;;;;2.03;1.13;;;-5.20;99.90;;;;;;5092983;28;20032;-68
2022/11/20 02:10:23;;;;;;;2.80;1.00;;;-5.20;99.90;;;;;;5077315;28;20044;-68
2022/11/20 02:15:33;;;;;;;2.72;0.90;;;-5.20;99.90;;;;;;5077754;28;20128;-68
2022/11/20 02:17:59;;;;;;;1.55;0.85;;;-5.20;99.90;;;;;;5075035;28;20035;-68
2022/11/20 02:20:25;;;;;;;1.15;0.70;;;-5.30;99.90;;;;;;5079055;28;20032;-68
2022/11/20 02:22:59;;;;;;;1.45;0.60;;;-5.30;99.90;;;;;;5094359;28;20028;-68
2022/11/20 02:25:27;;;;;;;1.20;0.85;;;-5.30;99.90;;;;;;5089470;28;20039;-68
2022/11/20 02:27:52;;;;;;;1.23;0.80;;;-5.30;99.90;;;;;;5096687;28;20044;-68
2022/11/20 02:30:19;;;;;;;1.25;0.93;;;-5.30;99.90;;;;;;5088954;28;20036;-68
2022/11/20 02:32:44;;;;;;;2.13;0.88;;;-5.30;99.90;;;;;;5100045;28;20032;-68
2022/11/20 02:35:19;;;;;;;2.08;1.10;;;-5.40;99.90;;;;;;5086989;28;20038;-69
2022/11/20 02:37:48;;;;;;;1.60;0.90;;;-5.40;99.90;;;;;;5086677;28;20166;-68
2022/11/20 02:40:14;;;;;;;2.08;0.80;;;-5.40;99.90;;;;;;5081765;28;20113;-68
2022/11/20 02:42:40;;;;;;;1.85;0.80;;;-5.30;99.90;;;;;;5089097;28;20081;-68
2022/11/20 02:45:06;;;;;;;2.10;1.05;;;-5.30;99.90;;;;;;5082939;28;20536;-69
2022/11/20 02:47:32;;;;;;;2.00;0.75;;;-5.30;99.90;;;;;;5085355;28;20040;-69
2022/11/20 02:49:58;;;;;;;1.17;0.60;;;-5.30;99.90;;;;;;5084212;28;20523;-69
2022/11/20 02:52:24;;;;;;;2.58;0.70;;;-5.30;99.90;;;;;;5088323;28;20048;-69
2022/11/20 02:54:50;;;;;;;2.00;0.70;;;-5.30;99.90;;;;;;5087751;28;20040;-68
2022/11/20 02:57:16;;;;;;;3.53;1.00;;;-5.30;99.90;;;;;;5088729;28;20044;-68
2022/11/20 02:59:41;;;;;;;0.75;0.55;;;-5.30;99.90;;;;;;5082499;28;20052;-69
2022/11/20 03:02:07;;;;;;;1.75;0.68;;;-5.30;99.90;;;;;;5090043;28;20089;-68
2022/11/20 03:04:32;;;;;;;0.60;0.50;;;-5.30;99.90;;;;;;5092573;28;20031;-68
2022/11/20 03:06:58;;;;;;;1.27;0.73;;;-5.20;99.90;;;;;;5090857;28;20462;-69
2022/11/20 03:09:24;;;;;;;1.00;0.60;;;-5.20;99.90;;;;;;5078901;28;20047;-69
2022/11/20 03:11:49;;;;;;;0.50;0.50;;;-5.20;99.90;;;;;;5079683;28;20530;-69
2022/11/20 03:14:15;;;;;;;1.52;0.70;;;-5.20;99.90;;;;;;5092018;28;20800;-68
2022/11/20 03:16:41;;;;;;;1.08;0.70;;;-5.20;99.90;;;;;;5092374;28;20331;-69
2022/11/20 03:19:07;;;;;;;8.65;1.30;;;-5.20;99.90;;;;;;5093821;28;20059;-68
2022/11/20 03:21:34;;;;;;;1.85;1.00;;;-5.30;99.90;;;;;;5091314;28;20096;-68
2022/11/20 03:24:00;;;;;;;1.58;0.50;;;-5.40;99.90;;;;;;5093381;28;20205;-68
2022/11/20 03:26:27;;;;;;;1.05;0.60;;;-5.30;99.90;;;;;;5088388;28;20048;-69
2022/11/20 03:28:55;;;;;;;1.65;0.80;;;-5.30;99.90;;;;;;5094800;28;20519;-68
2022/11/20 03:31:23;;;;;;;2.22;0.90;;;-5.20;99.90;;;;;;5083102;28;21096;-69
2022/11/20 03:33:49;;;;;;;3.33;0.80;;;-5.40;99.90;;;;;;5088570;28;20042;-69
2022/11/20 03:36:17;;;;;;;1.58;0.80;;;-5.40;99.90;;;;;;5087499;28;20044;-69
2022/11/20 03:38:43;;;;;;;1.55;0.80;;;-5.40;99.90;;;;;;5097617;28;20044;-68
2022/11/20 03:41:17;;;;;;;1.67;0.93;;;-5.40;99.90;;;;;;5079242;28;20792;-68
2022/11/20 03:43:56;;;;;;;3.65;0.63;;;-5.40;99.90;;;;;;5086651;28;20089;-68
2022/11/20 03:46:23;;;;;;;1.52;0.80;;;-5.50;99.90;;;;;;5088670;28;20075;-69
2022/11/20 03:48:49;;;;;;;2.53;0.88;;;-5.50;99.90;;;;;;5085297;28;20036;-69
2022/11/20 03:51:17;;;;;;;4.20;1.08;;;-5.50;99.90;;;;;;5076093;28;20040;-69
2022/11/20 03:53:45;;;;;;;2.55;1.30;;;-5.50;99.90;;;;;;5091815;28;20056;-69
2022/11/20 03:56:12;;;;;;;2.92;0.90;;;-5.50;99.90;;;;;;5081333;28;20040;-69
2022/11/20 03:58:42;;;;;;;1.83;0.60;;;-5.50;99.90;;;;;;5086353;28;20035;-68
2022/11/20 04:01:10;;;;;;;2.53;1.63;;;-5.40;99.90;;;;;;5090697;28;20069;-68
2022/11/20 04:03:37;;;;;;;2.28;1.00;;;-5.40;99.90;;;;;;5084693;28;20024;-69
2022/11/20 04:06:08;;;;;;;0.98;0.73;;;-5.40;99.90;;;;;;5084309;28;20050;-69
2022/11/20 04:08:33;;;;;;;4.25;0.75;;;-5.50;99.90;;;;;;5090558;28;20039;-68
2022/11/20 04:11:29;;;;;;;1.67;0.80;;;-5.50;99.90;;;;;;5082838;28;20028;-68
2022/11/20 04:14:00;;;;;;;1.40;0.80;;;-5.50;99.90;;;;;;5083607;28;20721;-68
2022/11/20 04:16:29;;;;;;;1.23;0.80;;;-5.50;99.90;;;;;;5091180;28;20559;-69
2022/11/20 04:18:57;;;;;;;2.00;0.75;;;-5.50;99.90;;;;;;5098154;28;20448;-68
2022/11/20 04:21:24;;;;;;;1.77;0.82;;;-5.50;99.90;;;;;;5091490;28;20040;-68
2022/11/20 04:23:52;;;;;;;2.10;1.05;;;-5.50;99.90;;;;;;5099460;28;20142;-68
2022/11/20 04:26:19;;;;;;;1.25;0.70;;;-5.50;99.90;;;;;;5091298;28;20135;-68
2022/11/20 04:28:44;;;;;;;1.42;0.70;;;-5.50;99.90;;;;;;5099101;28;20035;-68
2022/11/20 04:31:15;;;;;;;1.38;0.90;;;-5.50;99.90;;;;;;5095508;28;20039;-68
2022/11/20 04:33:41;;;;;;;1.00;0.75;;;-5.50;99.90;;;;;;5090645;28;20464;-68
2022/11/20 04:36:18;;;;;;;0.88;0.70;;;-5.50;99.90;;;;;;5095837;28;20097;-69
2022/11/20 04:38:44;;;;;;;0.93;0.70;;;-5.60;99.90;;;;;;5087432;28;20609;-68
2022/11/20 04:41:15;;;;;;;2.10;1.25;;;-5.60;99.90;;;;;;5083208;28;20131;-68
2022/11/20 04:43:41;;;;;;;1.63;0.95;;;-5.60;99.90;;;;;;5087431;28;20036;-68
2022/11/20 04:46:07;;;;;;;1.05;0.68;;;-5.60;99.90;;;;;;5089350;28;20044;-68
2022/11/20 04:48:34;;;;;;;1.58;0.80;;;-5.60;99.90;;;;;;5095428;28;20027;-68
2022/11/20 04:51:04;;;;;;;4.82;1.10;;;-5.60;99.90;;;;;;5087655;28;20046;-68
2022/11/20 04:53:29;;;;;;;1.65;1.05;;;-5.50;99.90;;;;;;5096729;28;20039;-68
2022/11/20 04:56:03;;;;;;;2.08;1.20;;;-5.50;99.90;;;;;;5087170;28;20865;-68
2022/11/20 04:58:29;;;;;;;1.88;0.77;;;-5.50;99.90;;;;;;5084145;28;20085;-68
2022/11/20 05:01:03;;;;;;;1.42;0.80;;;-5.60;99.90;;;;;;5082944;28;20027;-68
2022/11/20 05:03:29;;;;;;;1.73;0.80;;;-5.50;99.90;;;;;;5101178;28;20088;-68
2022/11/20 05:05:54;;;;;;;1.67;0.90;;;-5.50;99.90;;;;;;5087238;28;20104;-68
2022/11/20 05:08:20;;;;;;;2.33;1.00;;;-5.60;99.90;;;;;;5096906;28;20599;-68
2022/11/20 05:10:46;;;;;;;2.28;0.90;;;-5.50;99.90;;;;;;5082087;28;20050;-68
2022/11/20 05:13:11;;;;;;;1.40;0.80;;;-5.60;99.90;;;;;;5103598;28;20046;-68
2022/11/20 05:15:37;;;;;;;1.48;1.00;;;-5.70;99.90;;;;;;5085096;28;20043;-68
2022/11/20 05:18:03;;;;;;;2.60;1.30;;;-5.70;99.90;;;;;;5099041;28;20074;-69
2022/11/20 05:20:28;;;;;;;1.27;0.90;;;-5.70;99.90;;;;;;5088236;28;20063;-68
2022/11/20 05:22:57;;;;;;;2.78;1.40;;;-5.60;99.90;;;;;;5100001;28;20036;-68
2022/11/20 05:25:23;;;;;;;1.75;0.73;;;-5.40;99.90;;;;;;5088646;28;20377;-68
2022/11/20 05:27:48;;;;;;;2.05;1.05;;;-5.40;99.90;;;;;;5084627;28;20035;-69
2022/11/20 05:30:14;;;;;;;1.92;0.90;;;-5.20;99.90;;;;;;5082714;28;20075;-68
2022/11/20 05:32:40;;;;;;;1.33;1.13;;;-5.20;99.90;;;;;;5088469;28;20111;-68
2022/11/20 05:35:06;;;;;;;2.08;1.00;;;-5.10;99.90;;;;;;5080965;28;20707;-69
2022/11/20 05:37:31;;;;;;;1.80;0.93;;;-5.00;99.90;;;;;;5090106;28;20039;-68
2022/11/20 05:39:57;;;;;;;1.05;0.80;;;-4.90;99.90;;;;;;5086718;28;20032;-68
2022/11/20 05:42:32;;;;;;;0.80;0.57;;;-4.90;99.90;;;;;;5096954;28;20081;-67
2022/11/20 05:45:03;;;;;;;1.55;0.82;;;-4.80;99.90;;;;;;5090312;28;20526;-68
2022/11/20 05:47:32;;;;;;;1.08;0.80;;;-4.70;99.90;;;;;;5097998;28;20507;-68
2022/11/20 05:49:58;;;;;;;1.85;0.98;;;-4.60;99.90;;;;;;5080085;28;20415;-68
2022/11/20 05:52:24;;;;;;;1.55;1.08;;;-4.60;99.90;;;;;;5092224;28;20039;-68
2022/11/20 05:54:49;;;;;;;5.13;1.00;;;-4.60;99.90;;;;;;5080165;28;20062;-68
2022/11/20 05:57:16;;;;;;;3.30;0.98;;;-4.50;99.90;;;;;;5082903;28;20032;-69
2022/11/20 05:59:42;;;;;;;1.55;0.90;;;-4.50;99.90;;;;;;5084316;28;20032;-68
2022/11/20 06:02:07;;;;;;;0.75;0.60;;;-4.40;99.90;;;;;;5097867;28;20039;-68
2022/11/20 06:04:33;;;;;;;1.15;0.68;;;-4.40;99.90;;;;;;5090909;28;20035;-68
2022/11/20 06:06:59;;;;;;;2.50;1.50;;;-4.30;99.90;;;;;;5098826;28;20088;-68
2022/11/20 06:09:24;;;;;;;2.90;0.90;;;-4.20;99.90;;;;;;5083919;28;20039;-69
2022/11/20 06:11:50;;;;;;;2.08;1.10;;;-4.20;99.90;;;;;;5089255;28;20039;-68
2022/11/20 06:14:16;;;;;;;3.55;1.10;;;-4.20;99.90;;;;;;5095355;28;20045;-67
2022/11/20 06:16:41;;;;;;;2.40;1.00;;;-4.10;99.90;;;;;;5094118;28;20203;-70
2022/11/20 06:19:07;;;;;;;2.10;1.10;;;-4.10;99.90;;;;;;5095083;28;20042;-70
2022/11/20 06:21:32;;;;;;;2.10;1.23;;;-4.10;99.90;;;;;;5097652;28;20057;-70
2022/11/20 06:24:01;;;;;;;1.92;1.13;;;-4.00;99.90;;;;;;5088364;28;20024;-73
2022/11/20 06:26:30;;;;;;;1.85;1.00;;;-4.00;99.90;;;;;;5079950;28;20656;-72
2022/11/20 06:28:55;;;;;;;1.02;0.75;;;-4.00;99.90;;;;;;5094904;28;20115;-72
2022/11/20 06:31:25;;;;;;;6.18;1.20;;;-3.90;99.90;;;;;;5082432;28;20535;-72
2022/11/20 06:33:51;;;;;;;3.53;1.38;;;-3.90;99.90;;;;;;5090210;28;20043;-71
2022/11/20 06:36:19;;;;;;;2.58;1.20;;;-3.80;99.90;;;;;;5088697;28;20077;-73
2022/11/20 06:38:45;;;;;;;6.32;1.55;;;-3.70;99.90;;;;;;5093571;28;20047;-72
2022/11/20 06:41:14;;;;;;;1.70;1.02;;;-3.60;99.90;;;;;;5080215;28;20041;-72
2022/11/20 06:43:40;;;;;;;1.52;0.90;;;-3.60;99.90;;;;;;5091219;28;20089;-72
2022/11/20 06:46:06;;;;;;;1.55;1.05;;;-3.50;99.90;;;;;;5081542;28;20136;-72
2022/11/20 06:48:32;;;;;;;1.83;1.10;;;-3.50;99.90;;;;;;5095516;28;20498;-72
2022/11/20 06:50:58;;;;;;;1.88;0.90;;;-3.50;99.90;;;;;;5086880;28;20380;-72
2022/11/20 06:53:24;;;;;;;3.38;1.50;;;-3.50;99.90;;;;;;5089187;28;20036;-71
2022/11/20 06:55:51;;;;;;;2.47;1.38;;;-3.50;99.90;;;;;;5084432;28;20047;-71
2022/11/20 06:58:20;;;;;;;2.92;1.75;;;-3.40;99.90;;;;;;5108572;28;20080;-72
2022/11/20 07:00:46;;;;;;;3.50;1.90;;;-3.40;99.90;;;;;;5091431;28;20284;-72
2022/11/20 07:03:12;;;;;;;3.22;1.70;;;-3.30;99.90;;;;;;5093070;28;20035;-72
2022/11/20 07:05:38;;;;;;;2.85;1.70;;;-3.20;99.90;;;;;;5082347;28;20127;-72
2022/11/20 07:08:04;;;;;;;2.83;1.70;;;-3.10;99.90;;;;;;5085605;28;20079;-72
2022/11/20 07:10:31;;;;;;;5.15;2.08;;;-3.00;99.90;;;;;;5087907;28;20063;-72
2022/11/20 07:12:57;;;;;;;3.47;1.85;;;-2.90;99.90;;;;;;5100609;28;20065;-69
2022/11/20 07:15:24;;;;;;;4.35;2.10;;;-2.80;99.90;;;;;;5086556;28;20050;-73
2022/11/20 07:17:49;;;;;;;3.72;2.08;;;-2.70;99.90;;;;;;5093118;28;20063;-69
2022/11/20 07:20:15;;;;;;;5.32;2.78;;;-2.60;99.90;;;;;;5088300;28;20580;-72
2022/11/20 07:22:41;;;;;;;4.07;2.05;;;-2.50;99.90;;;;;;5100386;28;20028;-75
2022/11/20 07:25:08;;;;;;;3.95;2.25;;;-2.40;99.90;;;;;;5087817;28;20054;-72
2022/11/20 07:27:34;;;;;;;5.43;2.50;;;-2.30;99.90;;;;;;5101504;28;20384;-69
2022/11/20 07:30:00;;;;;;;3.10;2.00;;;-2.20;99.90;;;;;;5094906;28;20046;-67
2022/11/20 07:32:26;;;;;;;6.72;3.08;;;-2.10;99.90;;;;;;5102156;28;20044;-64
2022/11/20 07:34:51;;;;;;;4.43;2.67;;;-2.00;99.90;;;;;;5094968;28;20028;-64
2022/11/20 07:37:17;;;;;;;4.53;2.50;;;-2.00;99.90;;;;;;5103202;28;20040;-73
2022/11/20 07:39:43;;;;;;;5.95;3.22;;;-1.90;99.90;;;;;;5092139;28;20051;-70
2022/11/20 07:42:09;;;;;;;4.80;2.80;;;-1.80;99.90;;;;;;5082780;28;20036;-63
2022/11/20 07:44:35;;;;;;;6.20;3.50;;;-1.70;99.90;;;;;;5086663;28;20074;-69
2022/11/20 07:47:01;;;;;;;5.65;3.28;;;-1.60;99.90;;;;;;5093324;28;20033;-69
2022/11/20 07:49:27;;;;;;;5.63;3.28;;;-1.50;99.90;;;;;;5081800;28;20062;-71
2022/11/20 07:51:53;;;;;;;5.90;3.17;;;-1.40;99.90;;;;;;5087816;28;20047;-69
2022/11/20 07:54:22;;;;;;;6.22;3.40;;;-1.30;99.90;;;;;;5103587;28;20167;-70
2022/11/20 07:56:49;;;;;;;6.47;3.00;;;-1.30;99.90;;;;;;5086158;28;20044;-68
2022/11/20 07:59:18;;;;;;;6.18;3.10;;;-1.10;99.90;;;;;;5086077;28;20032;-70
2022/11/20 08:01:43;;;;;;;5.50;3.20;;;-1.10;99.90;;;;;;5081466;28;20036;-71
2022/11/20 08:04:09;;;;;;;6.15;3.28;;;-1.00;99.90;;;;;;5095222;28;20046;-71
2022/11/20 08:06:36;;;;;;;7.25;3.45;;;-0.90;99.90;;;;;;5095275;28;20036;-70
2022/11/20 08:09:02;;;;;;;7.63;3.58;;;-0.90;99.90;;;;;;5091610;28;20032;-68
2022/11/20 08:14:13;;;;;;;5.68;3.47;;;-0.90;99.90;;;;;;5094360;28;20506;-70
2022/11/20 08:16:49;;;;;;;6.57;3.03;;;-0.90;99.90;;;;;;5096532;28;20090;-70
2022/11/20 08:19:17;;;;;;;6.38;2.97;;;-0.80;99.90;;;;;;5086621;28;20044;-70
2022/11/20 08:21:44;;;;;;;5.53;3.10;;;-0.80;99.90;;;;;;5089137;28;20040;-70
2022/11/20 08:24:10;;;;;;;5.32;3.22;;;-0.70;99.90;;;;;;5093786;28;20047;-70
2022/11/20 08:26:38;;;;;;;6.25;3.15;;;-0.70;99.90;;;;;;5087763;28;20122;-70
2022/11/20 08:29:04;;;;;;;4.90;3.05;;;-0.80;99.90;;;;;;5096540;28;20824;-70
2022/11/20 08:31:31;;;;;;;5.88;3.15;;;-0.80;99.90;;;;;;5095735;28;20479;-70
2022/11/20 08:33:57;;;;;;;6.90;3.05;;;-0.80;99.90;;;;;;5099918;28;20032;-70
2022/11/20 08:36:24;;;;;;;6.10;3.30;;;-0.80;99.90;;;;;;5083713;28;20058;-69
2022/11/20 08:38:51;;;;;;;4.78;2.67;;;-0.70;99.90;;;;;;5086465;28;20438;-70
2022/11/20 08:41:32;;;;;;;5.18;2.95;;;-0.80;99.90;;;;;;5083657;28;20062;-70
2022/11/20 08:44:03;;;;;;;5.35;3.25;;;-0.70;99.90;;;;;;5093867;28;20039;-71
2022/11/20 08:46:37;;;;;;;5.70;2.90;;;-0.60;99.90;;;;;;5088871;28;20059;-70
2022/11/20 08:49:04;;;;;;;5.63;2.92;;;-0.50;99.90;;;;;;5100990;28;20363;-70
2022/11/20 08:51:30;;;;;;;6.40;3.10;;;-0.50;99.90;;;;;;5090187;28;20118;-71
2022/11/20 08:53:56;;;;;;;5.38;3.15;;;-0.50;99.90;;;;;;5099830;28;20107;-70
2022/11/20 08:56:21;;;;;;;4.90;2.55;;;-0.60;99.90;;;;;;5089760;28;20028;-70
2022/11/20 08:58:49;;;;;;;6.72;3.30;;;-0.50;99.90;;;;;;5089387;28;20043;-71
2022/11/20 09:01:14;;;;;;;5.50;3.15;;;-0.50;99.90;;;;;;5091102;28;20043;-70
2022/11/20 09:03:40;;;;;;;5.30;3.30;;;-0.60;99.90;;;;;;5102861;28;20028;-71
2022/11/20 09:06:07;;;;;;;6.05;3.15;;;-0.60;99.90;;;;;;5088876;28;20415;-71
2022/11/20 09:08:33;;;;;;;6.28;3.15;;;-0.50;99.90;;;;;;5094362;28;20035;-70
2022/11/20 09:10:59;;;;;;;6.75;3.22;;;-0.50;99.90;;;;;;5083992;28;20043;-70
2022/11/20 09:13:26;;;;;;;5.57;2.95;;;-0.50;99.90;;;;;;5101921;28;20039;-70
2022/11/20 09:16:02;;;;;;;5.90;3.17;;;-0.50;99.90;;;;;;5092838;28;20043;-70
2022/11/20 09:18:28;;;;;;;6.43;3.00;;;-0.50;99.90;;;;;;5097571;28;20054;-71
2022/11/20 09:20:58;;;;;;;6.50;3.08;;;-0.50;99.90;;;;;;5092236;28;20446;-70
2022/11/20 09:23:24;;;;;;;7.68;3.38;;;-0.50;99.90;;;;;;5097834;28;20051;-70
2022/11/20 09:25:50;;;;;;;5.63;3.40;;;-0.50;99.90;;;;;;5095724;28;20040;-70
2022/11/20 09:28:18;;;;;;;6.95;3.50;;;-0.30;99.90;;;;;;5097330;28;20054;-69
2022/11/20 09:30:44;;;;;;;5.40;3.25;;;-0.20;99.90;;;;;;5091976;28;20047;-70
2022/11/20 09:33:09;;;;;;;7.45;3.72;;;-0.10;99.90;;;;;;5098408;28;20035;-70
2022/11/20 09:35:35;;;;;;;14.50;7.45;;;0.00;99.90;;;;;;5089900;28;20028;-69
2022/11/20 09:38:05;;;;;;;6.43;3.75;;;-0.10;99.90;;;;;;5081286;28;20081;-71
2022/11/20 09:40:31;;;;;;;7.03;3.67;;;-0.30;99.90;;;;;;5080589;28;20036;-69
2022/11/20 09:43:11;;;;;;;7.38;4.13;;;-0.20;99.90;;;;;;5089092;28;20035;-70
2022/11/20 09:46:09;;;;;;;6.70;3.80;;;-0.20;99.90;;;;;;5080204;28;20032;-71
2022/11/20 09:49:09;;;;;;;6.30;3.55;;;0.00;99.90;;;;;;5085341;28;20726;-69
2022/11/20 09:51:59;;;;;;;8.90;3.90;;;0.30;99.90;;;;;;5086499;28;20032;-70
2022/11/20 09:54:52;;;;;;;6.97;3.95;;;0.50;99.90;;;;;;5083534;28;20044;-69
2022/11/20 09:57:22;;;;;;;7.93;3.88;;;0.60;99.90;;;;;;5096689;28;20631;-71
2022/11/20 09:59:58;;;;;;;9.02;3.88;;;0.80;99.90;;;;;;5083997;28;20040;-70
2022/11/20 10:02:24;;;;;;;6.15;3.47;;;0.90;99.90;;;;;;5099338;28;20035;-70
2022/11/20 10:05:01;;;;;;;7.88;3.90;;;1.00;99.90;;;;;;5083410;28;20105;-70
2022/11/20 10:08:13;;;;;;;6.93;3.88;;;1.20;99.90;;;;;;5083391;28;20079;-70
2022/11/20 10:10:45;;;;;;;7.35;3.95;;;1.30;99.90;;;;;;5003331;28;20037;-70
2022/11/20 10:13:35;;;;;;;7.50;3.90;;;1.20;99.90;;;;;;5091992;28;20710;-70
2022/11/20 10:16:21;;;;;;;8.50;3.92;;;1.30;99.90;;;;;;5089887;28;20176;-71
2022/11/20 10:18:59;;;;;;;7.90;3.93;;;1.40;99.90;;;;;;5092323;28;20028;-70
2022/11/20 10:21:49;;;;;;;6.95;3.78;;;1.50;99.90;;;;;;5080435;28;20072;-69
2022/11/20 10:24:24;;;;;;;7.25;4.10;;;1.70;99.90;;;;;;5088290;28;20044;-69
2022/11/20 10:27:14;;;;;;;8.73;4.32;;;1.60;99.90;;;;;;5095236;28;20028;-70
2022/11/20 10:29:46;;;;;;;11.18;4.43;;;1.50;99.90;;;;;;5088251;28;20043;-71
2022/11/20 10:32:28;;;;;;;7.47;3.85;;;1.50;99.90;;;;;;5090284;28;20059;-71
2022/11/20 10:35:30;;;;;;;9.43;4.38;;;1.70;99.90;;;;;;5069021;28;20038;-71
2022/11/20 10:38:03;;;;;;;8.80;4.93;;;1.80;99.90;;;;;;5074940;28;20078;-70
2022/11/20 10:40:35;;;;;;;9.57;4.07;;;1.90;99.90;;;;;;5077666;28;20044;-70
2022/11/20 10:43:19;;;;;;;8.20;4.03;;;1.80;99.90;;;;;;5092256;28;20692;-70
2022/11/20 10:46:08;;;;;;;7.22;4.18;;;1.70;99.90;;;;;;5093360;28;20093;-71
2022/11/20 10:48:36;;;;;;;7.90;4.35;;;1.70;99.90;;;;;;5082273;28;20100;-72
2022/11/20 10:51:26;;;;;;;8.00;4.15;;;1.80;99.90;;;;;;5078218;28;20096;-70
2022/11/20 10:54:23;;;;;;;9.35;4.78;;;1.90;99.90;;;;;;5079560;28;20036;-70
2022/11/20 10:56:53;;;;;;;;;;;2.00;99.90;;;;;;5081053;28;20648;-70
2022/11/20 10:59:45;;;;;;;7.10;3.75;;;2.00;99.90;;;;;;5083187;28;19920;-71
2022/11/20 11:02:22;;;;;;;9.27;4.40;;;2.00;99.90;;;;;;5080392;28;20115;-70
2022/11/20 11:04:53;;;;;;;10.43;4.72;;;2.20;99.90;;;;;;5082263;28;20043;-71
2022/11/20 11:07:39;;;;;;;8.43;4.32;;;2.20;99.90;;;;;;5083750;28;20047;-71
2022/11/20 11:10:18;;;;;;;9.95;5.47;;;2.20;99.90;;;;;;5083852;28;20031;-72
2022/11/20 11:12:46;;;;;;;8.55;4.45;;;2.20;99.90;;;;;;5093656;28;20043;-69
2022/11/20 11:15:38;;;;;;;9.40;4.72;;;2.10;99.90;;;;;;5088298;28;20044;-71
2022/11/20 11:18:04;;;;;;;7.93;4.35;;;1.80;99.90;;;;;;5087834;28;20042;-72
2022/11/20 11:20:31;;;;;;;8.38;4.50;;;1.70;99.90;;;;;;5089135;28;20044;-70
2022/11/20 11:22:58;;;;;;;8.50;4.53;;;1.50;99.90;;;;;;5084183;28;20071;-70
2022/11/20 11:25:35;;;;;;;8.90;4.57;;;1.30;99.90;;;;;;5080945;28;20107;-71
2022/11/20 11:28:19;;;;;;;8.48;4.60;;;1.30;99.90;;;;;;5083233;28;20044;-69
2022/11/20 11:30:46;;;;;;;9.15;4.97;;;1.30;99.90;;;;;;5072314;28;20040;-70
2022/11/20 11:33:22;;;;;;;10.30;4.93;;;1.30;99.90;;;;;;5083110;28;20036;-69
2022/11/20 11:35:57;;;;;;;9.35;4.75;;;1.40;99.90;;;;;;5080061;28;20039;-69
2022/11/20 11:38:38;;;;;;;9.98;5.25;;;1.50;99.90;;;;;;5081484;28;20710;-71
2022/11/20 11:41:07;;;;;;;9.68;5.00;;;1.60;99.90;;;;;;5077862;28;20076;-70
2022/11/20 11:46:55;;;;;;;10.95;5.60;;;1.80;99.90;;;;;;5083730;28;20436;-70
2022/11/20 11:49:21;;;;;;;11.65;4.82;;;2.00;99.90;;;;;;5070498;28;20724;-69
2022/11/20 11:52:13;;;;;;;11.93;6.03;;;2.00;99.90;;;;;;5084387;28;20019;-69
2022/11/20 11:54:58;;;;;;;9.90;5.47;;;2.10;99.90;;;;;;5081666;28;20407;-70
2022/11/20 11:57:27;;;;;;;9.57;5.22;;;2.20;99.90;;;;;;5083089;28;20051;-70
2022/11/20 12:00:01;;;;;;;9.55;5.07;;;2.30;99.90;;;;;;5086074;28;20399;-70
2022/11/20 12:02:39;;;;;;;10.30;5.13;;;2.30;99.90;;;;;;5080604;28;20055;-70
2022/11/20 12:05:16;;;;;;;11.43;5.13;;;2.30;99.90;;;;;;5081835;28;20040;-70
2022/11/20 12:08:15;;;;;;;11.35;5.65;;;2.20;99.90;;;;;;5087187;28;20044;-70
2022/11/20 12:10:55;;;;;;;8.95;4.97;;;2.10;99.90;;;;;;5047230;28;20047;-70
2022/11/20 12:13:33;;;;;;;10.20;5.35;;;1.80;99.90;;;;;;5100718;28;20047;-70
2022/11/20 12:16:00;;;;;;;9.07;4.72;;;1.70;99.90;;;;;;5086165;28;20036;-70
2022/11/20 12:18:28;;;;;;;10.52;5.47;;;1.60;99.90;;;;;;5097624;28;20047;-70
2022/11/20 12:21:17;;;;;;;10.82;5.68;;;1.60;99.90;;;;;;5100753;28;20670;-68
2022/11/20 12:24:20;;;;;;;11.32;5.30;;;1.50;99.90;;;;;;5089922;28;20042;-70
2022/11/20 12:27:18;;;;;;;10.13;5.13;;;1.50;99.90;;;;;;5088141;28;20063;-70
2022/11/20 12:30:10;;;;;;;9.90;5.43;;;1.60;99.90;;;;;;5081754;28;20109;-71
2022/11/20 12:32:51;;;;;;;12.23;5.43;;;1.60;99.90;;;;;;5100787;28;20039;-70
2022/11/20 12:35:35;;;;;;;15.30;6.72;;;1.60;99.90;;;;;;5089329;28;20038;-68
2022/11/20 12:38:22;;;;;;;12.93;6.50;;;1.60;99.90;;;;;;5093908;28;20024;-70
2022/11/20 12:41:06;;;;;;;12.70;6.85;;;1.60;99.90;;;;;;5075874;28;20044;-69
2022/11/20 12:46:46;;;;;;;14.45;7.05;;;1.50;99.90;;;;;;5080716;28;20044;-68
2022/11/20 12:49:12;;;;;;;12.90;6.85;;;1.50;99.90;;;;;;5082670;28;20035;-70
2022/11/20 12:52:12;;;;;;;11.10;6.68;;;1.50;99.90;;;;;;5080878;28;20396;-70
2022/11/20 12:54:53;;;;;;;11.15;6.63;;;1.50;99.90;;;;;;5083136;28;20047;-70
2022/11/20 12:57:32;;;;;;;13.73;7.05;;;1.50;99.90;;;;;;5083907;28;20036;-70
2022/11/20 13:00:07;;;;;;;13.90;7.32;;;1.50;99.90;;;;;;5084409;28;20036;-69
2022/11/20 13:03:00;;;;;;;15.07;8.05;;;1.40;99.90;;;;;;5089602;28;20040;-69
2022/11/20 13:05:48;;;;;;;13.27;7.07;;;1.50;99.90;;;;;;5087010;28;20540;-69
2022/11/20 13:08:38;;;;;;;12.73;6.60;;;1.60;99.90;;;;;;5094548;28;20063;-69
2022/11/20 13:11:16;;;;;;;15.95;8.85;;;1.60;99.90;;;;;;5070968;28;20048;-70
2022/11/20 13:13:51;;;;;;;19.67;9.77;;;1.60;99.90;;;;;;5083624;28;20036;-71
2022/11/20 13:16:52;;;;;;;13.57;7.70;;;1.60;99.90;;;;;;5085093;28;20035;-70
2022/11/20 13:19:18;;;;;;;14.80;7.70;;;1.60;99.90;;;;;;5089472;28;20085;-71
2022/11/20 13:21:48;;;;;;;15.30;7.55;;;1.70;99.90;;;;;;5078988;28;20474;-71